createdAt,value
2019-02-14T00:00:38.718Z,4.23
2019-02-14T00:03:08.930Z,3.90
2019-02-14T00:05:39.194Z,4.00
2019-02-14T00:08:09.376Z,4.50
2019-02-14T00:10:39.617Z,4.93
2019-02-14T00:13:09.844Z,4.73
2019-02-14T00:15:40.090Z,5.23
2019-02-14T00:18:12.628Z,5.57
2019-02-14T00:20:42.879Z,5.97
2019-02-14T00:23:14.037Z,5.60
2019-02-14T00:25:44.298Z,5.80
2019-02-14T00:28:14.435Z,6.43
2019-02-14T00:30:44.610Z,7.00
2019-02-14T00:33:15.590Z,7.60
2019-02-14T00:35:45.938Z,7.67
2019-02-14T00:38:16.121Z,6.47
2019-02-14T00:43:28.611Z,7.37
2019-02-14T00:45:58.823Z,7.37
2019-02-14T00:48:29.070Z,7.03
2019-02-14T00:50:59.262Z,7.57
2019-02-14T00:53:29.439Z,8.13
2019-02-14T00:55:59.563Z,7.93
2019-02-14T00:58:29.691Z,8.83
2019-02-14T01:00:59.874Z,8.37
2019-02-14T01:03:30.103Z,9.13
2019-02-14T01:06:00.275Z,8.60
2019-02-14T01:08:30.498Z,7.57
2019-02-14T01:11:00.687Z,9.40
2019-02-14T01:13:30.923Z,8.60
2019-02-14T01:16:01.127Z,9.37
2019-02-14T01:18:31.294Z,9.20
2019-02-14T01:21:01.430Z,9.23
2019-02-14T01:23:31.666Z,9.80
2019-02-14T01:26:01.862Z,10.17
2019-02-14T01:28:32.120Z,10.17
2019-02-14T01:31:02.157Z,9.77
2019-02-14T01:33:33.172Z,9.93
2019-02-14T01:36:03.491Z,10.63
2019-02-14T01:38:33.673Z,11.60
2019-02-14T01:41:03.916Z,11.07
2019-02-14T01:43:33.965Z,11.57
2019-02-14T01:46:04.204Z,10.53
2019-02-14T01:48:34.338Z,9.90
2019-02-14T01:51:04.468Z,11.57
2019-02-14T01:53:34.571Z,9.83
2019-02-14T01:56:04.829Z,15.07
2019-02-14T01:58:35.032Z,16.97
2019-02-14T02:01:05.285Z,25.67
2019-02-14T02:03:35.470Z,16.57
2019-02-14T02:06:05.718Z,13.90
2019-02-14T02:08:35.929Z,19.30
2019-02-14T02:11:06.475Z,15.57
2019-02-14T02:13:36.602Z,14.97
2019-02-14T02:16:06.850Z,12.40
2019-02-14T02:18:38.630Z,12.93
2019-02-14T02:21:08.904Z,14.40
2019-02-14T02:23:39.095Z,14.43
2019-02-14T02:26:09.331Z,15.00
2019-02-14T02:28:39.550Z,22.17
2019-02-14T02:31:09.823Z,21.27
2019-02-14T02:33:40.821Z,21.20
2019-02-14T02:36:11.153Z,20.40
2019-02-14T02:38:41.348Z,19.90
2019-02-14T02:41:11.628Z,20.90
2019-02-14T02:43:41.826Z,23.67
2019-02-14T02:46:12.017Z,26.17
2019-02-14T02:48:42.216Z,32.27
2019-02-14T02:51:12.488Z,24.30
2019-02-14T02:53:42.687Z,26.07
2019-02-14T02:56:12.939Z,34.23
2019-02-14T02:58:43.153Z,32.27
2019-02-14T03:01:13.413Z,18.63
2019-02-14T03:03:43.533Z,18.03
2019-02-14T03:06:13.703Z,16.83
2019-02-14T03:08:43.827Z,22.43
2019-02-14T03:11:13.979Z,19.63
2019-02-14T03:13:44.120Z,25.13
2019-02-14T03:16:14.368Z,28.57
2019-02-14T03:18:44.557Z,28.20
2019-02-14T03:21:14.795Z,23.00
2019-02-14T03:23:44.939Z,20.07
2019-02-14T03:26:15.122Z,20.77
2019-02-14T03:28:45.327Z,20.87
2019-02-14T03:31:15.499Z,19.53
2019-02-14T03:33:46.556Z,14.33
2019-02-14T03:36:19.221Z,17.53
2019-02-14T03:38:48.672Z,16.13
2019-02-14T03:41:18.852Z,13.73
2019-02-14T03:43:48.994Z,16.60
2019-02-14T03:46:19.227Z,18.80
2019-02-14T03:48:49.430Z,18.33
2019-02-14T03:51:19.651Z,13.90
2019-02-14T03:53:49.852Z,15.13
2019-02-14T03:56:19.966Z,21.73
2019-02-14T03:58:50.091Z,18.23
2019-02-14T04:01:20.350Z,22.63
2019-02-14T04:03:50.550Z,22.83
2019-02-14T04:06:27.167Z,23.13
2019-02-14T04:08:52.708Z,23.00
2019-02-14T04:11:22.969Z,22.47
2019-02-14T04:13:53.198Z,29.23
2019-02-14T04:16:23.443Z,33.37
2019-02-14T04:18:53.665Z,44.87
2019-02-14T04:21:23.919Z,31.03
2019-02-14T04:23:54.146Z,23.03
2019-02-14T04:26:24.397Z,20.70
2019-02-14T04:28:54.615Z,20.23
2019-02-14T04:31:24.882Z,26.97
2019-02-14T04:33:56.073Z,23.43
2019-02-14T04:36:26.387Z,19.10
2019-02-14T04:38:56.595Z,19.03
2019-02-14T04:41:26.778Z,19.47
2019-02-14T04:43:57.004Z,19.17
2019-02-14T04:46:27.169Z,18.70
2019-02-14T04:48:57.360Z,19.17
2019-02-14T04:51:27.625Z,22.60
2019-02-14T04:53:57.948Z,24.10
2019-02-14T04:56:28.203Z,21.93
2019-02-14T04:58:58.414Z,21.10
2019-02-14T05:01:28.667Z,18.93
2019-02-14T05:03:58.852Z,18.80
2019-02-14T05:06:29.113Z,19.43
2019-02-14T05:08:59.294Z,20.53
2019-02-14T05:11:29.477Z,19.03
2019-02-14T05:13:59.679Z,19.33
2019-02-14T05:16:29.937Z,19.83
2019-02-14T05:19:00.131Z,18.17
2019-02-14T05:21:30.384Z,17.97
2019-02-14T05:24:00.582Z,19.17
2019-02-14T05:26:30.770Z,15.77
2019-02-14T05:29:00.950Z,15.70
2019-02-14T05:31:31.406Z,17.23
2019-02-14T05:34:02.439Z,30.20
2019-02-14T05:36:32.673Z,18.43
2019-02-14T05:39:03.486Z,20.87
2019-02-14T05:41:33.741Z,21.70
2019-02-14T05:44:03.923Z,21.70
2019-02-14T05:46:34.154Z,17.33
2019-02-14T05:49:04.333Z,19.07
2019-02-14T05:51:34.589Z,19.07
2019-02-14T05:54:04.698Z,17.23
2019-02-14T05:56:34.961Z,16.20
2019-02-14T05:59:05.055Z,16.33
2019-02-14T06:01:35.321Z,20.13
2019-02-14T06:04:05.496Z,22.10
2019-02-14T06:06:35.668Z,18.53
2019-02-14T06:09:06.380Z,19.07
2019-02-14T06:11:36.616Z,17.43
2019-02-14T06:14:06.854Z,18.10
2019-02-14T06:16:37.100Z,17.10
2019-02-14T06:19:07.326Z,18.33
2019-02-14T06:21:37.578Z,17.33
2019-02-14T06:24:07.784Z,18.90
2019-02-14T06:26:38.048Z,20.63
2019-02-14T06:29:08.246Z,16.73
2019-02-14T06:31:38.494Z,14.60
2019-02-14T06:34:09.693Z,16.73
2019-02-14T06:36:40.020Z,17.67
2019-02-14T06:39:10.224Z,18.03
2019-02-14T06:41:40.481Z,18.50
2019-02-14T06:44:10.710Z,18.70
2019-02-14T06:46:40.954Z,16.83
2019-02-14T06:49:11.180Z,20.30
2019-02-14T06:51:41.455Z,17.53
2019-02-14T06:54:11.671Z,19.43
2019-02-14T06:56:41.930Z,26.73
2019-02-14T06:59:12.131Z,24.43
2019-02-14T07:01:42.401Z,26.73
2019-02-14T07:04:12.539Z,16.33
2019-02-14T07:06:42.764Z,14.20
2019-02-14T07:09:12.979Z,18.13
2019-02-14T07:11:43.214Z,15.30
2019-02-14T07:14:13.447Z,18.37
2019-02-14T07:16:43.672Z,17.53
2019-02-14T07:19:13.814Z,16.90
2019-02-14T07:21:44.050Z,16.53
2019-02-14T07:24:14.240Z,16.30
2019-02-14T07:26:44.473Z,17.37
2019-02-14T07:29:14.656Z,19.43
2019-02-14T07:31:44.913Z,15.10
2019-02-14T07:34:15.966Z,16.37
2019-02-14T07:36:46.795Z,16.93
2019-02-14T07:39:17.627Z,19.73
2019-02-14T07:41:47.869Z,14.77
2019-02-14T07:44:17.996Z,14.37
2019-02-14T07:46:48.170Z,12.60
2019-02-14T07:49:18.354Z,14.47
2019-02-14T07:51:48.772Z,12.90
2019-02-14T07:54:19.058Z,11.93
2019-02-14T07:56:49.198Z,14.47
2019-02-14T07:59:19.384Z,13.77
2019-02-14T08:01:49.631Z,11.80
2019-02-14T08:04:19.836Z,14.97
2019-02-14T08:06:50.094Z,13.77
2019-02-14T08:09:20.257Z,12.77
2019-02-14T08:11:50.520Z,14.10
2019-02-14T08:14:20.614Z,13.53
2019-02-14T08:16:50.915Z,12.40
2019-02-14T08:19:21.137Z,14.70
2019-02-14T08:21:52.898Z,14.77
2019-02-14T08:24:23.116Z,17.43
2019-02-14T08:26:53.401Z,20.15
2019-02-14T08:29:25.061Z,13.37
2019-02-14T08:31:55.736Z,13.37
2019-02-14T08:34:28.521Z,9.37
2019-02-14T08:36:59.222Z,10.03
2019-02-14T08:39:29.594Z,12.37
2019-02-14T08:41:59.872Z,15.43
2019-02-14T08:44:30.058Z,13.43
2019-02-14T08:47:00.300Z,15.57
2019-02-14T08:49:30.507Z,12.90
2019-02-14T08:52:00.767Z,11.13
2019-02-14T08:54:30.991Z,11.70
2019-02-14T08:57:01.181Z,11.40
2019-02-14T08:59:31.606Z,10.77
2019-02-14T09:02:01.787Z,9.83
2019-02-14T09:04:32.005Z,9.60
2019-02-14T09:07:02.336Z,9.43
2019-02-14T09:09:32.565Z,8.20
2019-02-14T09:12:02.810Z,8.73
2019-02-14T09:14:33.350Z,9.37
2019-02-14T09:17:03.640Z,9.17
2019-02-14T09:19:33.902Z,10.47
2019-02-14T09:22:04.254Z,9.00
2019-02-14T09:24:34.592Z,10.50
2019-02-14T09:27:05.033Z,13.27
2019-02-14T09:29:37.000Z,8.30
2019-02-14T09:32:07.369Z,9.23
2019-02-14T09:34:38.618Z,8.97
2019-02-14T09:37:08.889Z,7.73
2019-02-14T09:39:40.982Z,10.03
2019-02-14T09:42:11.260Z,9.50
2019-02-14T09:44:41.440Z,8.20
2019-02-14T09:47:11.661Z,10.33
2019-02-14T09:49:41.867Z,8.43
2019-02-14T09:52:12.173Z,10.33
2019-02-14T09:54:44.325Z,9.13
2019-02-14T09:57:14.948Z,8.93
2019-02-14T09:59:45.218Z,10.73
2019-02-14T10:02:15.474Z,9.70
2019-02-14T10:04:45.717Z,9.03
2019-02-14T10:07:19.888Z,10.83
2019-02-14T10:09:50.110Z,10.17
2019-02-14T10:12:20.773Z,8.70
2019-02-14T10:14:50.939Z,10.80
2019-02-14T10:17:22.754Z,8.73
2019-02-14T10:19:53.257Z,8.83
2019-02-14T10:22:23.492Z,31.07
2019-02-14T10:24:54.913Z,14.27
2019-02-14T10:27:29.939Z,7.87
2019-02-14T10:30:02.512Z,10.20
2019-02-14T10:32:36.063Z,9.77
2019-02-14T10:35:11.511Z,9.13
2019-02-14T10:37:42.029Z,8.97
2019-02-14T10:40:14.369Z,9.13
2019-02-14T10:42:44.800Z,8.43
2019-02-14T10:45:23.052Z,7.60
2019-02-14T10:47:53.344Z,9.20
2019-02-14T10:50:24.544Z,8.13
2019-02-14T10:52:54.799Z,7.60
2019-02-14T10:55:25.018Z,9.03
2019-02-14T10:57:55.278Z,7.90
2019-02-14T11:00:26.511Z,10.27
2019-02-14T11:02:56.744Z,12.47
2019-02-14T11:05:27.135Z,11.30
2019-02-14T11:07:58.983Z,8.13
2019-02-14T11:10:30.201Z,9.80
2019-02-14T11:13:00.517Z,9.47
2019-02-14T11:15:30.721Z,8.47
2019-02-14T11:18:00.998Z,9.30
2019-02-14T11:20:31.320Z,9.30
2019-02-14T11:23:01.585Z,9.30
2019-02-14T11:25:40.015Z,8.57
2019-02-14T11:28:10.262Z,7.90
2019-02-14T11:30:40.738Z,6.80
2019-02-14T11:33:11.048Z,8.80
2019-02-14T11:35:42.132Z,10.20
2019-02-14T11:38:15.046Z,9.80
2019-02-14T11:40:45.249Z,10.00
2019-02-14T11:43:15.505Z,8.53
2019-02-14T11:45:51.040Z,11.93
2019-02-14T11:48:18.370Z,8.60
2019-02-14T11:50:50.626Z,9.53
2019-02-14T11:53:20.615Z,10.23
2019-02-14T11:55:55.879Z,12.50
2019-02-14T11:58:27.762Z,12.23
2019-02-14T12:00:57.828Z,9.50
2019-02-14T12:03:28.567Z,8.90
2019-02-14T12:05:58.772Z,9.70
2019-02-14T12:08:29.041Z,8.63
2019-02-14T12:10:59.299Z,8.53
2019-02-14T12:13:29.589Z,11.37
2019-02-14T12:15:59.817Z,10.80
2019-02-14T12:18:30.085Z,9.63
2019-02-14T12:21:00.311Z,8.90
2019-02-14T12:23:30.544Z,9.98
2019-02-14T12:26:01.353Z,9.47
2019-02-14T12:28:31.586Z,9.47
2019-02-14T12:31:01.804Z,10.87
2019-02-14T12:33:32.034Z,12.13
2019-02-14T12:36:02.429Z,9.23
2019-02-14T12:38:35.755Z,10.23
2019-02-14T12:41:06.021Z,9.27
2019-02-14T12:43:36.255Z,15.33
2019-02-14T12:46:06.494Z,16.07
2019-02-14T12:48:36.693Z,13.07
2019-02-14T12:51:06.918Z,10.07
2019-02-14T12:53:37.211Z,8.77
2019-02-14T12:56:07.436Z,9.77
2019-02-14T12:58:37.687Z,10.23
2019-02-14T13:01:10.736Z,11.97
2019-02-14T13:03:44.620Z,10.03
2019-02-14T13:06:14.897Z,13.13
2019-02-14T13:08:45.220Z,11.03
2019-02-14T13:11:15.459Z,10.17
2019-02-14T13:13:49.762Z,10.10
2019-02-14T13:16:19.217Z,10.63
2019-02-14T13:18:51.190Z,10.20
2019-02-14T13:21:26.275Z,9.87
2019-02-14T13:23:57.725Z,11.27
2019-02-14T13:26:28.036Z,13.73
2019-02-14T13:28:58.336Z,12.63
2019-02-14T13:31:32.168Z,12.20
2019-02-14T13:34:00.902Z,11.13
2019-02-14T13:36:37.378Z,11.80
2019-02-14T13:39:07.896Z,11.10
2019-02-14T13:41:38.173Z,10.63
2019-02-14T13:44:11.516Z,13.13
2019-02-14T13:46:41.509Z,11.60
2019-02-14T13:49:13.675Z,11.43
2019-02-14T13:51:43.895Z,11.67
2019-02-14T13:54:14.128Z,11.70
2019-02-14T13:56:53.740Z,12.23
2019-02-14T13:59:16.904Z,12.30
2019-02-14T14:01:48.781Z,11.93
2019-02-14T14:04:23.600Z,12.53
2019-02-14T14:06:54.333Z,13.73
2019-02-14T14:09:26.980Z,12.37
2019-02-14T14:12:26.701Z,10.93
2019-02-14T14:15:28.845Z,12.50
2019-02-14T14:18:27.070Z,13.87
2019-02-14T14:21:25.471Z,14.03
2019-02-14T14:24:02.699Z,19.20
2019-02-14T14:26:37.133Z,16.13
2019-02-14T14:29:15.572Z,17.73
2019-02-14T14:31:48.856Z,16.00
2019-02-14T14:34:19.163Z,14.60
2019-02-14T14:36:50.304Z,13.27
2019-02-14T14:39:20.611Z,13.43
2019-02-14T14:41:50.937Z,13.80
2019-02-14T14:44:22.823Z,14.00
2019-02-14T14:46:54.841Z,15.27
2019-02-14T14:49:25.373Z,13.50
2019-02-14T14:51:56.175Z,13.87
2019-02-14T14:54:26.518Z,13.37
2019-02-14T14:56:57.384Z,13.50
2019-02-14T14:59:28.932Z,12.87
2019-02-14T15:02:02.101Z,13.63
2019-02-14T15:04:51.108Z,21.33
2019-02-14T15:07:25.560Z,16.93
2019-02-14T15:09:57.789Z,17.37
2019-02-14T15:12:28.057Z,16.30
2019-02-14T15:14:59.937Z,14.23
2019-02-14T15:17:30.888Z,14.00
2019-02-14T15:20:01.333Z,14.83
2019-02-14T15:22:31.917Z,14.70
2019-02-14T15:25:03.872Z,14.20
2019-02-14T15:27:34.091Z,15.03
2019-02-14T15:30:06.192Z,15.53
2019-02-14T15:32:36.413Z,15.70
2019-02-14T15:35:08.559Z,15.93
2019-02-14T15:37:39.148Z,16.53
2019-02-14T15:40:10.708Z,16.10
2019-02-14T15:42:42.920Z,16.87
2019-02-14T15:45:13.243Z,16.07
2019-02-14T15:47:44.800Z,17.70
2019-02-14T15:50:16.216Z,17.53
2019-02-14T15:52:46.484Z,17.50
2019-02-14T15:55:16.842Z,16.97
2019-02-14T15:57:47.372Z,16.57
2019-02-14T16:00:17.662Z,16.03
2019-02-14T16:02:50.264Z,16.37
2019-02-14T16:05:20.071Z,16.07
2019-02-14T16:07:50.297Z,16.73
2019-02-14T16:10:21.144Z,15.43
2019-02-14T16:12:51.422Z,17.80
2019-02-14T16:15:21.721Z,18.33
2019-02-14T16:17:52.103Z,17.50
2019-02-14T16:20:22.340Z,16.80
2019-02-14T16:22:52.476Z,17.97
2019-02-14T16:25:22.646Z,17.60
2019-02-14T16:27:52.746Z,20.03
2019-02-14T16:30:24.465Z,18.90
2019-02-14T16:32:54.602Z,20.60
2019-02-14T16:35:24.894Z,19.00
2019-02-14T16:37:55.946Z,20.87
2019-02-14T16:40:28.178Z,19.77
2019-02-14T16:42:58.149Z,19.50
2019-02-14T16:45:28.321Z,24.90
2019-02-14T16:47:58.887Z,21.93
2019-02-14T16:50:29.127Z,22.23
2019-02-14T16:52:59.247Z,25.12
2019-02-14T16:55:29.430Z,21.50
2019-02-14T16:57:59.650Z,20.00
2019-02-14T17:00:29.899Z,20.07
2019-02-14T17:03:00.105Z,20.53
2019-02-14T17:05:30.374Z,22.67
2019-02-14T17:08:00.570Z,22.33
2019-02-14T17:10:36.585Z,20.93
2019-02-14T17:13:02.719Z,20.03
2019-02-14T17:15:32.964Z,21.13
2019-02-14T17:18:03.208Z,20.27
2019-02-14T17:20:33.477Z,20.63
2019-02-14T17:23:03.691Z,20.77
2019-02-14T17:25:33.928Z,20.00
2019-02-14T17:28:04.134Z,19.30
2019-02-14T17:30:34.391Z,21.37
2019-02-14T17:33:04.591Z,21.60
2019-02-14T17:35:34.774Z,21.87
2019-02-14T17:38:05.027Z,25.90
2019-02-14T17:40:35.402Z,25.87
2019-02-14T17:43:05.639Z,23.50
2019-02-14T17:45:35.788Z,25.63
2019-02-14T17:48:05.983Z,25.33
2019-02-14T17:50:36.174Z,25.67
2019-02-14T17:53:06.370Z,25.10
2019-02-14T17:55:36.632Z,26.20
2019-02-14T17:58:06.828Z,26.43
2019-02-14T18:00:37.109Z,28.27
2019-02-14T18:03:07.295Z,29.33
2019-02-14T18:05:37.544Z,28.93
2019-02-14T18:08:07.754Z,31.73
2019-02-14T18:10:37.936Z,31.60
2019-02-14T18:13:08.135Z,30.70
2019-02-14T18:15:38.307Z,31.80
2019-02-14T18:18:08.427Z,30.87
2019-02-14T18:20:38.597Z,31.57
2019-02-14T18:23:08.780Z,33.23
2019-02-14T18:25:39.012Z,30.83
2019-02-14T18:28:09.144Z,31.43
2019-02-14T18:30:39.398Z,34.07
2019-02-14T18:33:09.508Z,36.37
2019-02-14T18:35:39.739Z,35.00
2019-02-14T18:38:10.857Z,36.07
2019-02-14T18:40:41.202Z,36.90
2019-02-14T18:43:11.392Z,34.00
2019-02-14T18:45:41.552Z,37.47
2019-02-14T18:48:11.683Z,33.07
2019-02-14T18:50:41.861Z,31.10
2019-02-14T18:53:12.084Z,28.77
2019-02-14T18:55:42.324Z,29.83
2019-02-14T18:58:12.419Z,27.67
2019-02-14T19:00:42.687Z,27.47
2019-02-14T19:03:12.815Z,22.83
2019-02-14T19:05:43.077Z,26.07
2019-02-14T19:08:13.259Z,17.03
2019-02-14T19:10:43.523Z,14.97
2019-02-14T19:13:13.740Z,16.63
2019-02-14T19:15:43.987Z,16.37
2019-02-14T19:18:14.201Z,16.33
2019-02-14T19:20:44.447Z,14.67
2019-02-14T19:23:23.333Z,14.10
2019-02-14T19:25:46.609Z,13.10
2019-02-14T19:28:16.824Z,12.13
2019-02-14T19:30:47.077Z,12.87
2019-02-14T19:33:17.244Z,11.53
2019-02-14T19:35:47.519Z,11.30
2019-02-14T19:38:18.877Z,11.00
2019-02-14T19:40:49.229Z,9.77
2019-02-14T19:43:19.446Z,10.10
2019-02-14T19:45:49.704Z,10.43
2019-02-14T19:48:19.919Z,9.63
2019-02-14T19:50:50.192Z,11.17
2019-02-14T19:53:20.383Z,11.23
2019-02-14T19:55:50.645Z,12.87
2019-02-14T19:58:20.861Z,11.97
2019-02-14T20:00:51.088Z,13.37
2019-02-14T20:03:21.298Z,13.33
2019-02-14T20:05:51.587Z,12.90
2019-02-14T20:08:21.782Z,13.33
2019-02-14T20:10:52.182Z,11.87
2019-02-14T20:13:22.310Z,13.50
2019-02-14T20:15:52.565Z,16.03
2019-02-14T20:18:22.767Z,17.87
2019-02-14T20:20:53.046Z,17.27
2019-02-14T20:23:23.229Z,17.07
2019-02-14T20:25:53.437Z,16.20
2019-02-14T20:28:23.582Z,14.57
2019-02-14T20:30:53.756Z,15.50
2019-02-14T20:33:23.948Z,14.43
2019-02-14T20:35:54.214Z,14.33
2019-02-14T20:38:25.186Z,14.13
2019-02-14T20:40:55.522Z,15.60
2019-02-14T20:43:25.731Z,14.57
2019-02-14T20:45:55.879Z,16.10
2019-02-14T20:48:26.077Z,12.23
2019-02-14T20:50:56.343Z,13.73
2019-02-14T20:53:26.463Z,14.30
2019-02-14T20:55:56.698Z,14.10
2019-02-14T20:58:26.805Z,13.97
2019-02-14T21:00:57.345Z,15.07
2019-02-14T21:03:27.535Z,15.57
2019-02-14T21:05:57.790Z,16.10
2019-02-14T21:08:27.884Z,16.20
2019-02-14T21:10:58.054Z,14.90
2019-02-14T21:13:28.158Z,16.30
2019-02-14T21:15:58.445Z,16.60
2019-02-14T21:18:28.575Z,17.73
2019-02-14T21:20:58.817Z,18.53
2019-02-14T21:23:29.032Z,18.03
2019-02-14T21:25:59.308Z,18.07
2019-02-14T21:28:29.594Z,17.07
2019-02-14T21:30:59.823Z,17.13
2019-02-14T21:33:29.938Z,17.73
2019-02-14T21:36:00.179Z,17.33
2019-02-14T21:38:30.414Z,18.50
2019-02-14T21:41:00.631Z,19.13
2019-02-14T21:43:31.027Z,17.60
2019-02-14T21:46:01.386Z,17.07
2019-02-14T21:48:31.566Z,16.23
2019-02-14T21:51:01.813Z,16.40
2019-02-14T21:53:32.017Z,18.90
2019-02-14T21:56:02.268Z,23.00
2019-02-14T21:58:32.470Z,24.70
2019-02-14T22:01:03.312Z,22.27
2019-02-14T22:03:33.485Z,24.43
2019-02-14T22:06:03.756Z,29.63
2019-02-14T22:08:33.904Z,28.87
2019-02-14T22:11:04.153Z,29.57
2019-02-14T22:13:34.289Z,24.80
2019-02-14T22:16:05.037Z,27.37
2019-02-14T22:18:35.234Z,27.77
2019-02-14T22:21:05.403Z,26.43
2019-02-14T22:23:35.587Z,29.13
2019-02-14T22:26:05.757Z,26.80
2019-02-14T22:28:35.902Z,27.70
2019-02-14T22:31:06.056Z,28.93
2019-02-14T22:33:36.268Z,27.40
2019-02-14T22:36:06.578Z,28.73
2019-02-14T22:38:36.842Z,25.77
2019-02-14T22:41:07.174Z,30.27
2019-02-14T22:43:37.292Z,24.87
2019-02-14T22:46:07.534Z,25.93
2019-02-14T22:48:37.733Z,25.53
2019-02-14T22:51:07.900Z,29.60
2019-02-14T22:53:38.024Z,29.93
2019-02-14T22:56:08.256Z,30.43
2019-02-14T22:58:38.379Z,30.23
2019-02-14T23:01:08.649Z,28.77
2019-02-14T23:03:38.847Z,28.37
2019-02-14T23:06:09.020Z,36.70
2019-02-14T23:08:39.134Z,31.13
2019-02-14T23:11:09.398Z,29.23
2019-02-14T23:13:39.514Z,33.63
2019-02-14T23:16:09.706Z,34.40
2019-02-14T23:18:39.906Z,36.50
2019-02-14T23:21:10.074Z,30.67
2019-02-14T23:23:40.288Z,29.37
2019-02-14T23:26:10.537Z,29.27
2019-02-14T23:28:40.752Z,30.37
2019-02-14T23:31:11.012Z,30.00
2019-02-14T23:33:41.217Z,28.23
2019-02-14T23:36:11.477Z,29.53
2019-02-14T23:38:42.569Z,26.23
2019-02-14T23:41:12.886Z,27.80
2019-02-14T23:43:43.065Z,26.17
2019-02-14T23:46:13.301Z,29.23
2019-02-14T23:48:43.506Z,29.43
2019-02-14T23:51:13.750Z,29.70
2019-02-14T23:53:43.882Z,30.50
2019-02-14T23:56:14.145Z,27.40
2019-02-14T23:58:44.327Z,23.20
